sensor_id;sensor_type;location;lat;lon;timestamp;P1;durP1;ratioP1;P2;durP2;ratioP2
53775;SDS011;44276;49.534;6.378;2023-01-29T00:00:13;35.60;;;17.73;;
53775;SDS011;44276;49.534;6.378;2023-01-29T00:02:43;38.42;;;22.15;;
53775;SDS011;44276;49.534;6.378;2023-01-29T00:05:12;7.35;;;4.38;;
53775;SDS011;44276;49.534;6.378;2023-01-29T00:07:54;10.25;;;5.30;;
53775;SDS011;44276;49.534;6.378;2023-01-29T00:10:23;6.18;;;3.95;;
53775;SDS011;44276;49.534;6.378;2023-01-29T00:12:52;7.85;;;4.25;;
53775;SDS011;44276;49.534;6.378;2023-01-29T00:15:20;4.53;;;3.53;;
53775;SDS011;44276;49.534;6.378;2023-01-29T00:17:48;6.70;;;4.15;;
53775;SDS011;44276;49.534;6.378;2023-01-29T00:20:18;5.88;;;3.85;;
53775;SDS011;44276;49.534;6.378;2023-01-29T00:22:46;6.43;;;4.07;;
53775;SDS011;44276;49.534;6.378;2023-01-29T00:25:14;5.63;;;4.05;;
53775;SDS011;44276;49.534;6.378;2023-01-29T00:27:42;7.97;;;4.75;;
53775;SDS011;44276;49.534;6.378;2023-01-29T00:30:11;8.18;;;4.43;;
53775;SDS011;44276;49.534;6.378;2023-01-29T00:32:44;5.75;;;4.40;;
53775;SDS011;44276;49.534;6.378;2023-01-29T00:35:13;10.35;;;4.35;;
53775;SDS011;44276;49.534;6.378;2023-01-29T00:37:42;5.25;;;3.60;;
53775;SDS011;44276;49.534;6.378;2023-01-29T00:40:11;6.78;;;4.43;;
53775;SDS011;44276;49.534;6.378;2023-01-29T00:42:40;6.32;;;4.15;;
53775;SDS011;44276;49.534;6.378;2023-01-29T00:45:43;7.57;;;4.07;;
53775;SDS011;44276;49.534;6.378;2023-01-29T00:48:11;6.47;;;4.13;;
53775;SDS011;44276;49.534;6.378;2023-01-29T00:50:39;7.82;;;5.55;;
53775;SDS011;44276;49.534;6.378;2023-01-29T00:53:09;6.07;;;4.30;;
53775;SDS011;44276;49.534;6.378;2023-01-29T00:55:37;8.18;;;4.40;;
53775;SDS011;44276;49.534;6.378;2023-01-29T00:58:05;6.10;;;4.60;;
53775;SDS011;44276;49.534;6.378;2023-01-29T01:00:33;11.02;;;4.82;;
53775;SDS011;44276;49.534;6.378;2023-01-29T01:03:01;7.38;;;4.05;;
53775;SDS011;44276;49.534;6.378;2023-01-29T01:05:31;7.28;;;4.32;;
53775;SDS011;44276;49.534;6.378;2023-01-29T01:08:02;6.57;;;4.15;;
53775;SDS011;44276;49.534;6.378;2023-01-29T01:10:58;6.70;;;4.75;;
53775;SDS011;44276;49.534;6.378;2023-01-29T01:13:28;6.13;;;2.90;;
53775;SDS011;44276;49.534;6.378;2023-01-29T01:15:58;6.43;;;4.50;;
53775;SDS011;44276;49.534;6.378;2023-01-29T01:18:28;7.45;;;4.78;;
53775;SDS011;44276;49.534;6.378;2023-01-29T01:20:57;7.53;;;4.88;;
53775;SDS011;44276;49.534;6.378;2023-01-29T01:23:25;7.38;;;4.80;;
53775;SDS011;44276;49.534;6.378;2023-01-29T01:25:53;8.55;;;4.72;;
53775;SDS011;44276;49.534;6.378;2023-01-29T01:28:22;5.20;;;4.15;;
53775;SDS011;44276;49.534;6.378;2023-01-29T01:30:51;7.22;;;4.50;;
53775;SDS011;44276;49.534;6.378;2023-01-29T01:33:19;9.45;;;5.70;;
53775;SDS011;44276;49.534;6.378;2023-01-29T01:35:47;12.23;;;5.60;;
53775;SDS011;44276;49.534;6.378;2023-01-29T01:38:16;22.08;;;11.55;;
53775;SDS011;44276;49.534;6.378;2023-01-29T01:40:44;11.07;;;6.68;;
53775;SDS011;44276;49.534;6.378;2023-01-29T01:43:13;12.73;;;7.45;;
53775;SDS011;44276;49.534;6.378;2023-01-29T01:45:42;11.35;;;6.80;;
53775;SDS011;44276;49.534;6.378;2023-01-29T01:48:13;12.63;;;5.55;;
53775;SDS011;44276;49.534;6.378;2023-01-29T01:50:48;6.00;;;4.00;;
53775;SDS011;44276;49.534;6.378;2023-01-29T01:53:21;7.63;;;5.00;;
53775;SDS011;44276;49.534;6.378;2023-01-29T01:55:56;7.00;;;4.43;;
53775;SDS011;44276;49.534;6.378;2023-01-29T01:58:31;8.00;;;4.75;;
53775;SDS011;44276;49.534;6.378;2023-01-29T02:01:04;7.70;;;4.82;;
53775;SDS011;44276;49.534;6.378;2023-01-29T02:03:38;6.35;;;4.25;;
53775;SDS011;44276;49.534;6.378;2023-01-29T02:06:30;10.98;;;5.65;;
53775;SDS011;44276;49.534;6.378;2023-01-29T02:09:18;12.23;;;5.80;;
53775;SDS011;44276;49.534;6.378;2023-01-29T02:11:57;10.10;;;6.93;;
53775;SDS011;44276;49.534;6.378;2023-01-29T02:14:25;8.07;;;4.80;;
53775;SDS011;44276;49.534;6.378;2023-01-29T02:16:55;7.63;;;5.22;;
53775;SDS011;44276;49.534;6.378;2023-01-29T02:19:26;5.35;;;4.03;;
53775;SDS011;44276;49.534;6.378;2023-01-29T02:22:17;4.78;;;3.40;;
53775;SDS011;44276;49.534;6.378;2023-01-29T02:25:15;7.55;;;3.20;;
53775;SDS011;44276;49.534;6.378;2023-01-29T02:28:14;5.80;;;3.50;;
53775;SDS011;44276;49.534;6.378;2023-01-29T02:30:55;6.38;;;4.78;;
53775;SDS011;44276;49.534;6.378;2023-01-29T02:33:38;7.40;;;3.80;;
53775;SDS011;44276;49.534;6.378;2023-01-29T02:36:21;5.60;;;3.47;;
53775;SDS011;44276;49.534;6.378;2023-01-29T02:39:03;6.57;;;4.20;;
53775;SDS011;44276;49.534;6.378;2023-01-29T02:41:44;6.18;;;3.92;;
53775;SDS011;44276;49.534;6.378;2023-01-29T02:44:39;7.68;;;4.00;;
53775;SDS011;44276;49.534;6.378;2023-01-29T02:47:15;7.07;;;3.90;;
53775;SDS011;44276;49.534;6.378;2023-01-29T02:49:50;6.78;;;3.80;;
53775;SDS011;44276;49.534;6.378;2023-01-29T02:52:34;6.05;;;4.20;;
53775;SDS011;44276;49.534;6.378;2023-01-29T02:55:15;7.25;;;3.63;;
53775;SDS011;44276;49.534;6.378;2023-01-29T02:57:50;4.82;;;3.70;;
53775;SDS011;44276;49.534;6.378;2023-01-29T03:03:03;4.28;;;2.90;;
53775;SDS011;44276;49.534;6.378;2023-01-29T03:05:39;3.07;;;1.97;;
53775;SDS011;44276;49.534;6.378;2023-01-29T03:08:20;5.65;;;3.72;;
53775;SDS011;44276;49.534;6.378;2023-01-29T03:11:03;5.35;;;3.08;;
53775;SDS011;44276;49.534;6.378;2023-01-29T03:13:34;4.97;;;3.10;;
53775;SDS011;44276;49.534;6.378;2023-01-29T03:16:13;6.43;;;4.18;;
53775;SDS011;44276;49.534;6.378;2023-01-29T03:18:50;8.32;;;4.13;;
53775;SDS011;44276;49.534;6.378;2023-01-29T03:21:24;6.40;;;3.72;;
53775;SDS011;44276;49.534;6.378;2023-01-29T03:24:22;7.10;;;4.47;;
53775;SDS011;44276;49.534;6.378;2023-01-29T03:27:18;8.15;;;3.58;;
53775;SDS011;44276;49.534;6.378;2023-01-29T03:30:09;4.47;;;3.17;;
53775;SDS011;44276;49.534;6.378;2023-01-29T03:33:00;6.28;;;3.38;;
53775;SDS011;44276;49.534;6.378;2023-01-29T03:35:35;5.93;;;3.33;;
53775;SDS011;44276;49.534;6.378;2023-01-29T03:38:10;6.68;;;4.55;;
53775;SDS011;44276;49.534;6.378;2023-01-29T03:40:40;6.88;;;3.53;;
53775;SDS011;44276;49.534;6.378;2023-01-29T03:43:21;8.38;;;4.13;;
53775;SDS011;44276;49.534;6.378;2023-01-29T03:46:00;5.53;;;3.58;;
53775;SDS011;44276;49.534;6.378;2023-01-29T03:48:36;5.63;;;3.88;;
53775;SDS011;44276;49.534;6.378;2023-01-29T03:51:18;6.50;;;4.20;;
53775;SDS011;44276;49.534;6.378;2023-01-29T03:53:55;5.90;;;4.30;;
53775;SDS011;44276;49.534;6.378;2023-01-29T03:56:36;6.53;;;3.78;;
53775;SDS011;44276;49.534;6.378;2023-01-29T03:59:21;6.75;;;4.40;;
53775;SDS011;44276;49.534;6.378;2023-01-29T04:02:02;6.30;;;4.50;;
53775;SDS011;44276;49.534;6.378;2023-01-29T04:04:36;8.65;;;4.07;;
53775;SDS011;44276;49.534;6.378;2023-01-29T04:07:09;65.47;;;20.92;;
53775;SDS011;44276;49.534;6.378;2023-01-29T04:09:42;9.98;;;5.75;;
53775;SDS011;44276;49.534;6.378;2023-01-29T04:12:17;7.55;;;4.43;;
53775;SDS011;44276;49.534;6.378;2023-01-29T04:14:52;8.60;;;5.43;;
53775;SDS011;44276;49.534;6.378;2023-01-29T04:17:26;7.32;;;4.55;;
53775;SDS011;44276;49.534;6.378;2023-01-29T04:20:05;8.02;;;3.97;;
53775;SDS011;44276;49.534;6.378;2023-01-29T04:22:36;10.55;;;5.55;;
53775;SDS011;44276;49.534;6.378;2023-01-29T04:25:07;11.27;;;4.43;;
53775;SDS011;44276;49.534;6.378;2023-01-29T04:27:42;8.77;;;6.28;;
53775;SDS011;44276;49.534;6.378;2023-01-29T04:30:22;8.93;;;4.15;;
53775;SDS011;44276;49.534;6.378;2023-01-29T04:33:05;6.47;;;4.72;;
53775;SDS011;44276;49.534;6.378;2023-01-29T04:35:52;11.05;;;5.57;;
53775;SDS011;44276;49.534;6.378;2023-01-29T04:38:38;9.40;;;5.15;;
53775;SDS011;44276;49.534;6.378;2023-01-29T04:41:23;8.85;;;5.05;;
53775;SDS011;44276;49.534;6.378;2023-01-29T04:44:00;8.27;;;5.00;;
53775;SDS011;44276;49.534;6.378;2023-01-29T04:46:40;9.02;;;5.28;;
53775;SDS011;44276;49.534;6.378;2023-01-29T04:49:22;8.50;;;4.80;;
53775;SDS011;44276;49.534;6.378;2023-01-29T04:52:04;8.25;;;4.75;;
53775;SDS011;44276;49.534;6.378;2023-01-29T04:54:48;9.13;;;5.72;;
53775;SDS011;44276;49.534;6.378;2023-01-29T04:57:28;6.18;;;4.10;;
53775;SDS011;44276;49.534;6.378;2023-01-29T05:00:06;6.97;;;4.68;;
53775;SDS011;44276;49.534;6.378;2023-01-29T05:02:43;8.32;;;4.18;;
53775;SDS011;44276;49.534;6.378;2023-01-29T05:05:13;6.07;;;4.57;;
53775;SDS011;44276;49.534;6.378;2023-01-29T05:07:47;8.93;;;4.93;;
53775;SDS011;44276;49.534;6.378;2023-01-29T05:10:17;16.15;;;4.70;;
53775;SDS011;44276;49.534;6.378;2023-01-29T05:12:50;8.60;;;5.50;;
53775;SDS011;44276;49.534;6.378;2023-01-29T05:15:28;8.30;;;4.45;;
53775;SDS011;44276;49.534;6.378;2023-01-29T05:18:03;8.18;;;4.57;;
53775;SDS011;44276;49.534;6.378;2023-01-29T05:20:34;6.95;;;4.82;;
53775;SDS011;44276;49.534;6.378;2023-01-29T05:23:09;9.68;;;6.25;;
53775;SDS011;44276;49.534;6.378;2023-01-29T05:25:42;8.70;;;5.20;;
53775;SDS011;44276;49.534;6.378;2023-01-29T05:28:12;8.27;;;5.25;;
53775;SDS011;44276;49.534;6.378;2023-01-29T05:30:42;7.25;;;4.63;;
53775;SDS011;44276;49.534;6.378;2023-01-29T05:33:13;8.10;;;5.47;;
53775;SDS011;44276;49.534;6.378;2023-01-29T05:35:45;7.90;;;4.90;;
53775;SDS011;44276;49.534;6.378;2023-01-29T05:38:15;8.57;;;4.70;;
53775;SDS011;44276;49.534;6.378;2023-01-29T05:40:45;8.77;;;4.80;;
53775;SDS011;44276;49.534;6.378;2023-01-29T05:43:14;7.90;;;4.85;;
53775;SDS011;44276;49.534;6.378;2023-01-29T05:45:50;10.85;;;5.72;;
53775;SDS011;44276;49.534;6.378;2023-01-29T05:48:19;10.32;;;5.53;;
53775;SDS011;44276;49.534;6.378;2023-01-29T05:50:48;10.55;;;5.60;;
53775;SDS011;44276;49.534;6.378;2023-01-29T05:53:18;10.23;;;6.18;;
53775;SDS011;44276;49.534;6.378;2023-01-29T05:55:46;17.02;;;6.85;;
53775;SDS011;44276;49.534;6.378;2023-01-29T05:58:15;12.77;;;6.70;;
53775;SDS011;44276;49.534;6.378;2023-01-29T06:00:44;8.68;;;5.72;;
53775;SDS011;44276;49.534;6.378;2023-01-29T06:03:13;10.27;;;5.85;;
53775;SDS011;44276;49.534;6.378;2023-01-29T06:05:41;7.93;;;5.45;;
53775;SDS011;44276;49.534;6.378;2023-01-29T06:08:09;13.57;;;8.00;;
53775;SDS011;44276;49.534;6.378;2023-01-29T06:10:39;13.23;;;7.05;;
53775;SDS011;44276;49.534;6.378;2023-01-29T06:13:07;10.30;;;6.20;;
53775;SDS011;44276;49.534;6.378;2023-01-29T06:15:37;40.67;;;14.50;;
53775;SDS011;44276;49.534;6.378;2023-01-29T06:18:06;18.48;;;8.70;;
53775;SDS011;44276;49.534;6.378;2023-01-29T06:20:35;12.38;;;6.93;;
53775;SDS011;44276;49.534;6.378;2023-01-29T06:23:04;13.32;;;6.43;;
53775;SDS011;44276;49.534;6.378;2023-01-29T06:25:32;12.98;;;7.15;;
53775;SDS011;44276;49.534;6.378;2023-01-29T06:28:01;11.60;;;6.57;;
53775;SDS011;44276;49.534;6.378;2023-01-29T06:30:30;11.55;;;7.13;;
53775;SDS011;44276;49.534;6.378;2023-01-29T06:32:58;11.75;;;6.68;;
53775;SDS011;44276;49.534;6.378;2023-01-29T06:35:28;15.45;;;10.35;;
53775;SDS011;44276;49.534;6.378;2023-01-29T06:37:56;16.73;;;8.32;;
53775;SDS011;44276;49.534;6.378;2023-01-29T06:40:24;15.13;;;7.18;;
53775;SDS011;44276;49.534;6.378;2023-01-29T06:42:52;17.85;;;8.10;;
53775;SDS011;44276;49.534;6.378;2023-01-29T06:45:22;15.75;;;8.45;;
53775;SDS011;44276;49.534;6.378;2023-01-29T06:47:50;16.58;;;9.70;;
53775;SDS011;44276;49.534;6.378;2023-01-29T06:50:18;19.15;;;9.43;;
53775;SDS011;44276;49.534;6.378;2023-01-29T06:52:46;20.73;;;11.80;;
53775;SDS011;44276;49.534;6.378;2023-01-29T06:55:14;17.58;;;8.27;;
53775;SDS011;44276;49.534;6.378;2023-01-29T06:57:43;17.90;;;9.63;;
53775;SDS011;44276;49.534;6.378;2023-01-29T07:00:11;15.98;;;8.43;;
53775;SDS011;44276;49.534;6.378;2023-01-29T07:02:43;44.55;;;16.02;;
53775;SDS011;44276;49.534;6.378;2023-01-29T07:05:15;34.13;;;14.10;;
53775;SDS011;44276;49.534;6.378;2023-01-29T07:07:43;26.40;;;12.63;;
53775;SDS011;44276;49.534;6.378;2023-01-29T07:10:11;31.70;;;13.30;;
53775;SDS011;44276;49.534;6.378;2023-01-29T07:12:40;19.92;;;10.18;;
53775;SDS011;44276;49.534;6.378;2023-01-29T07:15:08;25.48;;;10.88;;
53775;SDS011;44276;49.534;6.378;2023-01-29T07:17:37;17.13;;;9.13;;
53775;SDS011;44276;49.534;6.378;2023-01-29T07:20:08;29.33;;;12.43;;
53775;SDS011;44276;49.534;6.378;2023-01-29T07:22:37;41.15;;;16.52;;
53775;SDS011;44276;49.534;6.378;2023-01-29T07:25:06;29.00;;;14.23;;
53775;SDS011;44276;49.534;6.378;2023-01-29T07:27:35;24.35;;;12.75;;
53775;SDS011;44276;49.534;6.378;2023-01-29T07:30:04;25.10;;;12.73;;
53775;SDS011;44276;49.534;6.378;2023-01-29T07:32:34;18.98;;;8.90;;
53775;SDS011;44276;49.534;6.378;2023-01-29T07:35:02;18.75;;;8.95;;
53775;SDS011;44276;49.534;6.378;2023-01-29T07:37:32;21.33;;;8.93;;
53775;SDS011;44276;49.534;6.378;2023-01-29T07:40:00;23.42;;;11.18;;
53775;SDS011;44276;49.534;6.378;2023-01-29T07:42:30;22.48;;;10.13;;
53775;SDS011;44276;49.534;6.378;2023-01-29T07:44:58;26.08;;;11.65;;
53775;SDS011;44276;49.534;6.378;2023-01-29T07:47:26;21.08;;;9.77;;
53775;SDS011;44276;49.534;6.378;2023-01-29T07:49:54;22.75;;;10.05;;
53775;SDS011;44276;49.534;6.378;2023-01-29T07:52:22;16.60;;;9.07;;
53775;SDS011;44276;49.534;6.378;2023-01-29T07:54:52;22.85;;;10.18;;
53775;SDS011;44276;49.534;6.378;2023-01-29T07:57:20;22.50;;;12.27;;
53775;SDS011;44276;49.534;6.378;2023-01-29T07:59:49;19.75;;;10.18;;
53775;SDS011;44276;49.534;6.378;2023-01-29T08:02:17;26.70;;;12.35;;
53775;SDS011;44276;49.534;6.378;2023-01-29T08:04:46;23.27;;;11.00;;
53775;SDS011;44276;49.534;6.378;2023-01-29T08:07:14;30.20;;;13.90;;
53775;SDS011;44276;49.534;6.378;2023-01-29T08:09:43;24.95;;;11.65;;
53775;SDS011;44276;49.534;6.378;2023-01-29T08:12:14;26.13;;;11.70;;
53775;SDS011;44276;49.534;6.378;2023-01-29T08:14:43;30.70;;;12.25;;
53775;SDS011;44276;49.534;6.378;2023-01-29T08:17:11;33.08;;;12.65;;
53775;SDS011;44276;49.534;6.378;2023-01-29T08:19:40;31.30;;;12.73;;
53775;SDS011;44276;49.534;6.378;2023-01-29T08:22:08;25.48;;;11.02;;
53775;SDS011;44276;49.534;6.378;2023-01-29T08:24:36;18.10;;;9.55;;
53775;SDS011;44276;49.534;6.378;2023-01-29T08:27:25;21.50;;;12.27;;
53775;SDS011;44276;49.534;6.378;2023-01-29T08:29:54;18.67;;;8.93;;
53775;SDS011;44276;49.534;6.378;2023-01-29T08:32:22;17.70;;;8.48;;
53775;SDS011;44276;49.534;6.378;2023-01-29T08:34:50;15.77;;;8.55;;
53775;SDS011;44276;49.534;6.378;2023-01-29T08:37:18;19.42;;;8.38;;
53775;SDS011;44276;49.534;6.378;2023-01-29T08:39:46;16.92;;;8.07;;
53775;SDS011;44276;49.534;6.378;2023-01-29T08:42:14;16.95;;;8.70;;
53775;SDS011;44276;49.534;6.378;2023-01-29T08:44:44;14.40;;;8.05;;
53775;SDS011;44276;49.534;6.378;2023-01-29T08:47:12;16.00;;;9.70;;
53775;SDS011;44276;49.534;6.378;2023-01-29T08:49:41;14.85;;;7.85;;
53775;SDS011;44276;49.534;6.378;2023-01-29T08:52:09;11.68;;;6.28;;
53775;SDS011;44276;49.534;6.378;2023-01-29T08:54:37;10.98;;;6.22;;
53775;SDS011;44276;49.534;6.378;2023-01-29T08:57:05;9.00;;;5.55;;
53775;SDS011;44276;49.534;6.378;2023-01-29T08:59:33;8.38;;;5.47;;
53775;SDS011;44276;49.534;6.378;2023-01-29T09:02:02;7.57;;;5.13;;
53775;SDS011;44276;49.534;6.378;2023-01-29T09:04:30;8.82;;;5.75;;
53775;SDS011;44276;49.534;6.378;2023-01-29T09:06:59;7.60;;;5.03;;
53775;SDS011;44276;49.534;6.378;2023-01-29T09:09:27;9.05;;;5.47;;
53775;SDS011;44276;49.534;6.378;2023-01-29T09:11:55;10.48;;;6.63;;
53775;SDS011;44276;49.534;6.378;2023-01-29T09:14:23;11.90;;;6.43;;
53775;SDS011;44276;49.534;6.378;2023-01-29T09:16:52;8.18;;;5.82;;
53775;SDS011;44276;49.534;6.378;2023-01-29T09:19:22;8.82;;;6.20;;
53775;SDS011;44276;49.534;6.378;2023-01-29T09:21:50;10.95;;;6.75;;
53775;SDS011;44276;49.534;6.378;2023-01-29T09:24:18;12.95;;;7.75;;
53775;SDS011;44276;49.534;6.378;2023-01-29T09:26:46;11.23;;;6.45;;
53775;SDS011;44276;49.534;6.378;2023-01-29T09:29:14;10.77;;;6.60;;
53775;SDS011;44276;49.534;6.378;2023-01-29T09:31:42;13.98;;;7.72;;
53775;SDS011;44276;49.534;6.378;2023-01-29T09:34:11;13.00;;;7.05;;
53775;SDS011;44276;49.534;6.378;2023-01-29T09:36:41;13.50;;;7.20;;
53775;SDS011;44276;49.534;6.378;2023-01-29T09:39:09;18.90;;;8.63;;
53775;SDS011;44276;49.534;6.378;2023-01-29T09:41:41;14.15;;;7.50;;
53775;SDS011;44276;49.534;6.378;2023-01-29T09:44:21;15.10;;;7.45;;
53775;SDS011;44276;49.534;6.378;2023-01-29T09:47:07;15.98;;;9.38;;
53775;SDS011;44276;49.534;6.378;2023-01-29T09:49:42;16.27;;;9.27;;
53775;SDS011;44276;49.534;6.378;2023-01-29T09:52:18;15.73;;;10.00;;
53775;SDS011;44276;49.534;6.378;2023-01-29T09:54:53;17.38;;;8.70;;
53775;SDS011;44276;49.534;6.378;2023-01-29T09:57:32;14.27;;;8.82;;
53775;SDS011;44276;49.534;6.378;2023-01-29T10:00:12;24.85;;;9.95;;
53775;SDS011;44276;49.534;6.378;2023-01-29T10:02:50;11.40;;;7.60;;
53775;SDS011;44276;49.534;6.378;2023-01-29T10:05:43;11.88;;;6.72;;
53775;SDS011;44276;49.534;6.378;2023-01-29T10:11:59;19.38;;;8.57;;
53775;SDS011;44276;49.534;6.378;2023-01-29T10:14:43;13.80;;;7.60;;
53775;SDS011;44276;49.534;6.378;2023-01-29T10:17:28;11.15;;;6.93;;
53775;SDS011;44276;49.534;6.378;2023-01-29T10:20:34;12.10;;;8.23;;
53775;SDS011;44276;49.534;6.378;2023-01-29T10:23:22;17.05;;;9.45;;
53775;SDS011;44276;49.534;6.378;2023-01-29T10:26:00;16.27;;;8.65;;
53775;SDS011;44276;49.534;6.378;2023-01-29T10:28:31;14.40;;;8.27;;
53775;SDS011;44276;49.534;6.378;2023-01-29T10:31:08;15.18;;;9.02;;
53775;SDS011;44276;49.534;6.378;2023-01-29T10:33:44;14.40;;;8.70;;
53775;SDS011;44276;49.534;6.378;2023-01-29T10:36:31;16.17;;;8.90;;
53775;SDS011;44276;49.534;6.378;2023-01-29T10:39:04;20.10;;;10.65;;
53775;SDS011;44276;49.534;6.378;2023-01-29T10:44:50;20.50;;;11.05;;
53775;SDS011;44276;49.534;6.378;2023-01-29T10:50:43;17.55;;;10.05;;
53775;SDS011;44276;49.534;6.378;2023-01-29T10:56:23;18.10;;;10.43;;
53775;SDS011;44276;49.534;6.378;2023-01-29T10:59:17;25.08;;;12.38;;
53775;SDS011;44276;49.534;6.378;2023-01-29T11:02:11;23.48;;;11.13;;
53775;SDS011;44276;49.534;6.378;2023-01-29T11:04:44;23.58;;;12.88;;
53775;SDS011;44276;49.534;6.378;2023-01-29T11:07:13;26.25;;;12.25;;
53775;SDS011;44276;49.534;6.378;2023-01-29T11:09:49;24.58;;;11.95;;
53775;SDS011;44276;49.534;6.378;2023-01-29T11:12:24;22.83;;;12.15;;
53775;SDS011;44276;49.534;6.378;2023-01-29T11:15:00;23.75;;;13.05;;
53775;SDS011;44276;49.534;6.378;2023-01-29T11:17:33;22.40;;;12.43;;
53775;SDS011;44276;49.534;6.378;2023-01-29T11:20:01;25.75;;;12.88;;
53775;SDS011;44276;49.534;6.378;2023-01-29T11:22:53;23.50;;;11.95;;
53775;SDS011;44276;49.534;6.378;2023-01-29T11:25:21;23.00;;;13.10;;
53775;SDS011;44276;49.534;6.378;2023-01-29T11:27:51;21.92;;;12.30;;
53775;SDS011;44276;49.534;6.378;2023-01-29T11:30:24;26.70;;;14.80;;
53775;SDS011;44276;49.534;6.378;2023-01-29T11:32:59;22.33;;;12.77;;
53775;SDS011;44276;49.534;6.378;2023-01-29T11:35:35;28.40;;;11.80;;
53775;SDS011;44276;49.534;6.378;2023-01-29T11:38:08;30.92;;;15.27;;
53775;SDS011;44276;49.534;6.378;2023-01-29T11:40:48;25.25;;;12.38;;
53775;SDS011;44276;49.534;6.378;2023-01-29T11:43:17;28.48;;;14.38;;
53775;SDS011;44276;49.534;6.378;2023-01-29T11:45:58;25.02;;;13.35;;
53775;SDS011;44276;49.534;6.378;2023-01-29T11:48:32;25.55;;;12.60;;
53775;SDS011;44276;49.534;6.378;2023-01-29T11:51:09;29.98;;;15.75;;
53775;SDS011;44276;49.534;6.378;2023-01-29T11:53:48;26.50;;;13.85;;
53775;SDS011;44276;49.534;6.378;2023-01-29T11:56:22;24.48;;;13.63;;
53775;SDS011;44276;49.534;6.378;2023-01-29T11:58:56;23.55;;;11.85;;
53775;SDS011;44276;49.534;6.378;2023-01-29T12:01:30;24.70;;;12.70;;
53775;SDS011;44276;49.534;6.378;2023-01-29T12:04:03;23.80;;;12.07;;
53775;SDS011;44276;49.534;6.378;2023-01-29T12:06:47;24.27;;;13.15;;
53775;SDS011;44276;49.534;6.378;2023-01-29T12:09:20;25.20;;;13.65;;
53775;SDS011;44276;49.534;6.378;2023-01-29T12:11:52;25.02;;;12.32;;
53775;SDS011;44276;49.534;6.378;2023-01-29T12:14:22;21.30;;;12.48;;
53775;SDS011;44276;49.534;6.378;2023-01-29T12:16:57;25.83;;;12.98;;
53775;SDS011;44276;49.534;6.378;2023-01-29T12:19:32;30.95;;;14.90;;
53775;SDS011;44276;49.534;6.378;2023-01-29T12:22:07;30.67;;;15.52;;
53775;SDS011;44276;49.534;6.378;2023-01-29T12:24:47;31.88;;;15.80;;
53775;SDS011;44276;49.534;6.378;2023-01-29T12:29:55;30.17;;;15.65;;
53775;SDS011;44276;49.534;6.378;2023-01-29T12:32:36;34.38;;;17.17;;
53775;SDS011;44276;49.534;6.378;2023-01-29T12:35:16;38.75;;;16.23;;
53775;SDS011;44276;49.534;6.378;2023-01-29T12:37:53;29.03;;;15.53;;
53775;SDS011;44276;49.534;6.378;2023-01-29T12:40:28;31.48;;;16.17;;
53775;SDS011;44276;49.534;6.378;2023-01-29T12:43:02;35.63;;;18.25;;
53775;SDS011;44276;49.534;6.378;2023-01-29T12:45:40;29.77;;;16.30;;
53775;SDS011;44276;49.534;6.378;2023-01-29T12:48:12;29.85;;;15.52;;
53775;SDS011;44276;49.534;6.378;2023-01-29T12:50:49;40.67;;;19.58;;
53775;SDS011;44276;49.534;6.378;2023-01-29T12:53:23;49.28;;;29.95;;
53775;SDS011;44276;49.534;6.378;2023-01-29T12:55:58;32.85;;;18.30;;
53775;SDS011;44276;49.534;6.378;2023-01-29T12:58:33;28.10;;;14.55;;
53775;SDS011;44276;49.534;6.378;2023-01-29T13:01:10;43.20;;;24.48;;
53775;SDS011;44276;49.534;6.378;2023-01-29T13:03:46;31.17;;;17.15;;
53775;SDS011;44276;49.534;6.378;2023-01-29T13:06:24;32.40;;;16.77;;
53775;SDS011;44276;49.534;6.378;2023-01-29T13:08:56;34.15;;;17.92;;
53775;SDS011;44276;49.534;6.378;2023-01-29T13:11:32;38.67;;;18.98;;
53775;SDS011;44276;49.534;6.378;2023-01-29T13:14:08;36.85;;;19.52;;
53775;SDS011;44276;49.534;6.378;2023-01-29T13:16:47;35.53;;;17.10;;
53775;SDS011;44276;49.534;6.378;2023-01-29T13:19:24;31.85;;;17.05;;
53775;SDS011;44276;49.534;6.378;2023-01-29T13:22:00;33.22;;;17.10;;
53775;SDS011;44276;49.534;6.378;2023-01-29T13:24:32;29.80;;;16.05;;
53775;SDS011;44276;49.534;6.378;2023-01-29T13:27:06;33.85;;;18.20;;
53775;SDS011;44276;49.534;6.378;2023-01-29T13:29:47;31.20;;;16.25;;
53775;SDS011;44276;49.534;6.378;2023-01-29T13:32:18;35.55;;;16.17;;
53775;SDS011;44276;49.534;6.378;2023-01-29T13:34:53;32.30;;;18.02;;
53775;SDS011;44276;49.534;6.378;2023-01-29T13:37:26;35.38;;;18.20;;
53775;SDS011;44276;49.534;6.378;2023-01-29T13:39:59;29.83;;;14.52;;
53775;SDS011;44276;49.534;6.378;2023-01-29T13:42:37;37.08;;;16.20;;
53775;SDS011;44276;49.534;6.378;2023-01-29T13:45:16;29.05;;;14.60;;
53775;SDS011;44276;49.534;6.378;2023-01-29T13:47:49;28.17;;;16.13;;
53775;SDS011;44276;49.534;6.378;2023-01-29T13:50:23;33.08;;;16.85;;
53775;SDS011;44276;49.534;6.378;2023-01-29T13:53:01;30.65;;;16.15;;
53775;SDS011;44276;49.534;6.378;2023-01-29T13:55:33;30.95;;;15.20;;
53775;SDS011;44276;49.534;6.378;2023-01-29T13:58:04;36.67;;;16.88;;
53775;SDS011;44276;49.534;6.378;2023-01-29T14:06:37;31.73;;;16.90;;
53775;SDS011;44276;49.534;6.378;2023-01-29T14:09:31;34.05;;;16.20;;
53775;SDS011;44276;49.534;6.378;2023-01-29T14:12:30;32.55;;;16.20;;
53775;SDS011;44276;49.534;6.378;2023-01-29T14:18:13;30.80;;;15.10;;
53775;SDS011;44276;49.534;6.378;2023-01-29T14:20:53;25.92;;;15.32;;
53775;SDS011;44276;49.534;6.378;2023-01-29T14:23:35;30.83;;;17.27;;
53775;SDS011;44276;49.534;6.378;2023-01-29T14:28:59;35.63;;;15.93;;
53775;SDS011;44276;49.534;6.378;2023-01-29T14:31:38;28.00;;;15.20;;
53775;SDS011;44276;49.534;6.378;2023-01-29T14:34:14;30.83;;;14.50;;
53775;SDS011;44276;49.534;6.378;2023-01-29T14:36:57;36.67;;;16.38;;
53775;SDS011;44276;49.534;6.378;2023-01-29T14:39:34;33.20;;;17.35;;
53775;SDS011;44276;49.534;6.378;2023-01-29T14:42:20;32.15;;;16.90;;
53775;SDS011;44276;49.534;6.378;2023-01-29T14:44:55;31.05;;;16.15;;
53775;SDS011;44276;49.534;6.378;2023-01-29T14:51:05;29.80;;;15.10;;
53775;SDS011;44276;49.534;6.378;2023-01-29T14:53:42;38.35;;;16.17;;
53775;SDS011;44276;49.534;6.378;2023-01-29T14:56:28;30.20;;;14.57;;
53775;SDS011;44276;49.534;6.378;2023-01-29T14:59:09;30.13;;;14.50;;
53775;SDS011;44276;49.534;6.378;2023-01-29T15:01:45;28.60;;;14.82;;
53775;SDS011;44276;49.534;6.378;2023-01-29T15:04:19;25.55;;;13.43;;
53775;SDS011;44276;49.534;6.378;2023-01-29T15:06:54;23.58;;;13.98;;
53775;SDS011;44276;49.534;6.378;2023-01-29T15:09:29;27.85;;;14.88;;
53775;SDS011;44276;49.534;6.378;2023-01-29T15:12:15;30.92;;;14.00;;
53775;SDS011;44276;49.534;6.378;2023-01-29T15:14:55;31.75;;;15.75;;
53775;SDS011;44276;49.534;6.378;2023-01-29T15:17:33;30.45;;;14.30;;
53775;SDS011;44276;49.534;6.378;2023-01-29T15:22:57;25.08;;;12.23;;
53775;SDS011;44276;49.534;6.378;2023-01-29T15:25:26;25.83;;;13.45;;
53775;SDS011;44276;49.534;6.378;2023-01-29T15:28:03;26.52;;;11.70;;
53775;SDS011;44276;49.534;6.378;2023-01-29T15:30:36;26.58;;;13.15;;
53775;SDS011;44276;49.534;6.378;2023-01-29T15:33:06;24.23;;;13.13;;
53775;SDS011;44276;49.534;6.378;2023-01-29T15:35:37;19.42;;;10.27;;
53775;SDS011;44276;49.534;6.378;2023-01-29T15:38:13;22.70;;;11.32;;
53775;SDS011;44276;49.534;6.378;2023-01-29T15:40:54;22.67;;;12.40;;
53775;SDS011;44276;49.534;6.378;2023-01-29T15:43:26;20.40;;;11.13;;
53775;SDS011;44276;49.534;6.378;2023-01-29T15:45:57;22.17;;;10.63;;
53775;SDS011;44276;49.534;6.378;2023-01-29T15:48:29;17.08;;;9.65;;
53775;SDS011;44276;49.534;6.378;2023-01-29T15:51:01;20.98;;;10.43;;